sensor_id;sensor_type;location;lat;lon;timestamp;P1;durP1;ratioP1;P2;durP2;ratioP2
19589;SDS011;12231;42.782;23.388;2023-03-01T00:02:16;3.67;;;2.03;;
19589;SDS011;12231;42.782;23.388;2023-03-01T00:04:41;2.80;;;1.70;;
19589;SDS011;12231;42.782;23.388;2023-03-01T00:07:06;1.57;;;1.30;;
19589;SDS011;12231;42.782;23.388;2023-03-01T00:09:32;1.30;;;1.17;;
19589;SDS011;12231;42.782;23.388;2023-03-01T00:11:57;1.33;;;1.10;;
19589;SDS011;12231;42.782;23.388;2023-03-01T00:14:23;1.47;;;0.97;;
19589;SDS011;12231;42.782;23.388;2023-03-01T00:16:48;1.57;;;1.47;;
19589;SDS011;12231;42.782;23.388;2023-03-01T00:19:15;1.10;;;1.00;;
19589;SDS011;12231;42.782;23.388;2023-03-01T00:21:42;1.20;;;1.10;;
19589;SDS011;12231;42.782;23.388;2023-03-01T00:24:08;2.33;;;1.40;;
19589;SDS011;12231;42.782;23.388;2023-03-01T00:26:34;2.77;;;1.47;;
19589;SDS011;12231;42.782;23.388;2023-03-01T00:28:59;1.40;;;1.30;;
19589;SDS011;12231;42.782;23.388;2023-03-01T00:31:27;1.10;;;1.10;;
19589;SDS011;12231;42.782;23.388;2023-03-01T00:33:54;1.63;;;0.90;;
19589;SDS011;12231;42.782;23.388;2023-03-01T00:36:24;0.90;;;0.90;;
19589;SDS011;12231;42.782;23.388;2023-03-01T00:38:52;1.13;;;1.03;;
19589;SDS011;12231;42.782;23.388;2023-03-01T00:41:18;1.10;;;1.00;;
19589;SDS011;12231;42.782;23.388;2023-03-01T00:43:44;0.97;;;0.90;;
19589;SDS011;12231;42.782;23.388;2023-03-01T00:46:11;1.20;;;1.10;;
19589;SDS011;12231;42.782;23.388;2023-03-01T00:48:38;1.20;;;1.07;;
19589;SDS011;12231;42.782;23.388;2023-03-01T00:51:07;1.80;;;1.30;;
19589;SDS011;12231;42.782;23.388;2023-03-01T00:53:37;2.13;;;1.60;;
19589;SDS011;12231;42.782;23.388;2023-03-01T00:56:03;5.57;;;2.93;;
19589;SDS011;12231;42.782;23.388;2023-03-01T00:58:30;6.00;;;2.70;;
19589;SDS011;12231;42.782;23.388;2023-03-01T01:00:55;3.60;;;2.00;;
19589;SDS011;12231;42.782;23.388;2023-03-01T01:03:21;1.70;;;1.57;;
19589;SDS011;12231;42.782;23.388;2023-03-01T01:05:46;1.60;;;1.50;;
19589;SDS011;12231;42.782;23.388;2023-03-01T01:08:12;1.90;;;1.70;;
19589;SDS011;12231;42.782;23.388;2023-03-01T01:10:38;1.83;;;1.73;;
19589;SDS011;12231;42.782;23.388;2023-03-01T01:13:03;2.20;;;2.00;;
19589;SDS011;12231;42.782;23.388;2023-03-01T01:15:29;2.60;;;2.40;;
19589;SDS011;12231;42.782;23.388;2023-03-01T01:17:58;2.93;;;2.73;;
19589;SDS011;12231;42.782;23.388;2023-03-01T01:20:23;1.30;;;1.20;;
19589;SDS011;12231;42.782;23.388;2023-03-01T01:22:48;1.20;;;1.10;;
19589;SDS011;12231;42.782;23.388;2023-03-01T01:25:14;0.90;;;0.90;;
19589;SDS011;12231;42.782;23.388;2023-03-01T01:27:39;0.80;;;0.80;;
19589;SDS011;12231;42.782;23.388;2023-03-01T01:30:05;1.07;;;0.83;;
19589;SDS011;12231;42.782;23.388;2023-03-01T01:32:30;2.60;;;1.70;;
19589;SDS011;12231;42.782;23.388;2023-03-01T01:34:56;1.00;;;1.00;;
19589;SDS011;12231;42.782;23.388;2023-03-01T01:37:21;1.67;;;1.17;;
19589;SDS011;12231;42.782;23.388;2023-03-01T01:39:47;23.63;;;11.43;;
19589;SDS011;12231;42.782;23.388;2023-03-01T01:42:15;1.20;;;1.10;;
19589;SDS011;12231;42.782;23.388;2023-03-01T01:44:42;1.20;;;1.10;;
19589;SDS011;12231;42.782;23.388;2023-03-01T01:47:16;1.63;;;1.50;;
19589;SDS011;12231;42.782;23.388;2023-03-01T01:50:02;1.00;;;1.00;;
19589;SDS011;12231;42.782;23.388;2023-03-01T01:52:31;1.33;;;1.20;;
19589;SDS011;12231;42.782;23.388;2023-03-01T01:57:33;0.90;;;0.90;;
19589;SDS011;12231;42.782;23.388;2023-03-01T02:00:22;0.97;;;0.83;;
19589;SDS011;12231;42.782;23.388;2023-03-01T02:02:51;0.90;;;0.90;;
19589;SDS011;12231;42.782;23.388;2023-03-01T02:08:17;0.90;;;0.90;;
19589;SDS011;12231;42.782;23.388;2023-03-01T02:10:45;1.40;;;1.27;;
19589;SDS011;12231;42.782;23.388;2023-03-01T02:13:12;1.13;;;1.03;;
19589;SDS011;12231;42.782;23.388;2023-03-01T02:15:38;1.00;;;1.00;;
19589;SDS011;12231;42.782;23.388;2023-03-01T02:18:06;2.23;;;1.67;;
19589;SDS011;12231;42.782;23.388;2023-03-01T02:20:33;1.20;;;0.93;;
19589;SDS011;12231;42.782;23.388;2023-03-01T02:23:08;1.20;;;0.90;;
19589;SDS011;12231;42.782;23.388;2023-03-01T02:30:41;1.03;;;1.03;;
19589;SDS011;12231;42.782;23.388;2023-03-01T02:33:30;15.20;;;6.87;;
19589;SDS011;12231;42.782;23.388;2023-03-01T02:35:58;1.97;;;1.63;;
19589;SDS011;12231;42.782;23.388;2023-03-01T02:38:26;0.70;;;0.70;;
19589;SDS011;12231;42.782;23.388;2023-03-01T02:40:53;0.83;;;0.83;;
19589;SDS011;12231;42.782;23.388;2023-03-01T02:43:22;0.73;;;0.73;;
19589;SDS011;12231;42.782;23.388;2023-03-01T02:45:52;0.60;;;0.60;;
19589;SDS011;12231;42.782;23.388;2023-03-01T02:48:18;0.90;;;0.90;;
19589;SDS011;12231;42.782;23.388;2023-03-01T02:56:27;0.93;;;0.73;;
19589;SDS011;12231;42.782;23.388;2023-03-01T02:58:54;0.80;;;0.80;;
19589;SDS011;12231;42.782;23.388;2023-03-01T03:01:20;0.60;;;0.60;;
19589;SDS011;12231;42.782;23.388;2023-03-01T03:03:46;0.83;;;0.83;;
19589;SDS011;12231;42.782;23.388;2023-03-01T03:06:11;0.80;;;0.80;;
19589;SDS011;12231;42.782;23.388;2023-03-01T03:08:37;0.30;;;0.30;;
19589;SDS011;12231;42.782;23.388;2023-03-01T03:11:02;0.70;;;0.70;;
19589;SDS011;12231;42.782;23.388;2023-03-01T03:13:28;0.57;;;0.57;;
19589;SDS011;12231;42.782;23.388;2023-03-01T03:15:54;0.70;;;0.70;;
19589;SDS011;12231;42.782;23.388;2023-03-01T03:18:20;0.67;;;0.67;;
19589;SDS011;12231;42.782;23.388;2023-03-01T03:20:47;1.20;;;1.20;;
19589;SDS011;12231;42.782;23.388;2023-03-01T03:23:17;5.20;;;2.20;;
19589;SDS011;12231;42.782;23.388;2023-03-01T03:25:43;2.10;;;1.90;;
19589;SDS011;12231;42.782;23.388;2023-03-01T03:28:09;1.50;;;1.40;;
19589;SDS011;12231;42.782;23.388;2023-03-01T03:30:35;1.40;;;1.30;;
19589;SDS011;12231;42.782;23.388;2023-03-01T03:33:04;0.60;;;0.60;;
19589;SDS011;12231;42.782;23.388;2023-03-01T03:35:31;0.60;;;0.60;;
19589;SDS011;12231;42.782;23.388;2023-03-01T03:37:59;0.60;;;0.60;;
19589;SDS011;12231;42.782;23.388;2023-03-01T03:40:39;0.50;;;0.50;;
19589;SDS011;12231;42.782;23.388;2023-03-01T03:43:09;1.37;;;1.10;;
19589;SDS011;12231;42.782;23.388;2023-03-01T03:45:37;0.60;;;0.60;;
19589;SDS011;12231;42.782;23.388;2023-03-01T03:48:03;0.63;;;0.63;;
19589;SDS011;12231;42.782;23.388;2023-03-01T03:50:31;0.50;;;0.50;;
19589;SDS011;12231;42.782;23.388;2023-03-01T03:52:57;0.80;;;0.80;;
19589;SDS011;12231;42.782;23.388;2023-03-01T03:55:22;1.13;;;1.03;;
19589;SDS011;12231;42.782;23.388;2023-03-01T03:57:48;1.30;;;1.20;;
19589;SDS011;12231;42.782;23.388;2023-03-01T04:00:32;1.20;;;1.20;;
19589;SDS011;12231;42.782;23.388;2023-03-01T04:02:59;0.90;;;0.90;;
19589;SDS011;12231;42.782;23.388;2023-03-01T04:05:25;0.83;;;0.80;;
19589;SDS011;12231;42.782;23.388;2023-03-01T04:07:51;0.70;;;0.70;;
19589;SDS011;12231;42.782;23.388;2023-03-01T04:10:39;3.00;;;1.00;;
19589;SDS011;12231;42.782;23.388;2023-03-01T04:13:10;1.00;;;1.00;;
19589;SDS011;12231;42.782;23.388;2023-03-01T04:15:37;1.17;;;1.07;;
19589;SDS011;12231;42.782;23.388;2023-03-01T04:18:03;0.90;;;0.90;;
19589;SDS011;12231;42.782;23.388;2023-03-01T04:20:31;0.73;;;0.73;;
19589;SDS011;12231;42.782;23.388;2023-03-01T04:23:16;29.70;;;12.57;;
19589;SDS011;12231;42.782;23.388;2023-03-01T04:25:45;1.00;;;0.90;;
19589;SDS011;12231;42.782;23.388;2023-03-01T04:28:39;0.70;;;0.70;;
19589;SDS011;12231;42.782;23.388;2023-03-01T04:31:09;1.03;;;0.93;;
19589;SDS011;12231;42.782;23.388;2023-03-01T04:33:39;1.07;;;0.60;;
19589;SDS011;12231;42.782;23.388;2023-03-01T04:36:06;1.57;;;1.10;;
19589;SDS011;12231;42.782;23.388;2023-03-01T04:38:33;1.43;;;0.93;;
19589;SDS011;12231;42.782;23.388;2023-03-01T04:40:59;0.70;;;0.70;;
19589;SDS011;12231;42.782;23.388;2023-03-01T04:43:25;1.00;;;1.00;;
19589;SDS011;12231;42.782;23.388;2023-03-01T04:45:50;0.80;;;0.80;;
19589;SDS011;12231;42.782;23.388;2023-03-01T04:48:16;0.73;;;0.73;;
19589;SDS011;12231;42.782;23.388;2023-03-01T04:50:41;3.33;;;1.20;;
19589;SDS011;12231;42.782;23.388;2023-03-01T04:53:06;0.70;;;0.70;;
19589;SDS011;12231;42.782;23.388;2023-03-01T04:55:33;1.80;;;1.10;;
19589;SDS011;12231;42.782;23.388;2023-03-01T04:57:58;0.90;;;0.90;;
19589;SDS011;12231;42.782;23.388;2023-03-01T05:00:24;0.77;;;0.77;;
19589;SDS011;12231;42.782;23.388;2023-03-01T05:02:53;0.90;;;0.90;;
19589;SDS011;12231;42.782;23.388;2023-03-01T05:05:32;1.00;;;1.00;;
19589;SDS011;12231;42.782;23.388;2023-03-01T05:08:00;0.50;;;0.50;;
19589;SDS011;12231;42.782;23.388;2023-03-01T05:10:28;0.80;;;0.80;;
19589;SDS011;12231;42.782;23.388;2023-03-01T05:12:56;0.60;;;0.60;;
19589;SDS011;12231;42.782;23.388;2023-03-01T05:15:22;0.60;;;0.60;;
19589;SDS011;12231;42.782;23.388;2023-03-01T05:17:52;0.57;;;0.57;;
19589;SDS011;12231;42.782;23.388;2023-03-01T05:20:19;0.50;;;0.50;;
19589;SDS011;12231;42.782;23.388;2023-03-01T05:22:48;1.80;;;0.63;;
19589;SDS011;12231;42.782;23.388;2023-03-01T05:25:14;0.50;;;0.50;;
19589;SDS011;12231;42.782;23.388;2023-03-01T05:27:39;0.40;;;0.40;;
19589;SDS011;12231;42.782;23.388;2023-03-01T05:30:05;0.60;;;0.60;;
19589;SDS011;12231;42.782;23.388;2023-03-01T05:32:41;0.67;;;0.67;;
19589;SDS011;12231;42.782;23.388;2023-03-01T05:35:09;2.47;;;0.70;;
19589;SDS011;12231;42.782;23.388;2023-03-01T05:37:38;3.43;;;3.00;;
19589;SDS011;12231;42.782;23.388;2023-03-01T05:40:05;1.17;;;0.90;;
19589;SDS011;12231;42.782;23.388;2023-03-01T05:42:30;3.27;;;1.70;;
19589;SDS011;12231;42.782;23.388;2023-03-01T05:44:56;4.90;;;2.53;;
19589;SDS011;12231;42.782;23.388;2023-03-01T05:47:21;9.07;;;4.43;;
19589;SDS011;12231;42.782;23.388;2023-03-01T05:49:47;8.20;;;4.10;;
19589;SDS011;12231;42.782;23.388;2023-03-01T05:52:14;4.10;;;2.00;;
19589;SDS011;12231;42.782;23.388;2023-03-01T05:54:39;2.77;;;1.77;;
19589;SDS011;12231;42.782;23.388;2023-03-01T05:57:05;3.23;;;2.17;;
19589;SDS011;12231;42.782;23.388;2023-03-01T05:59:30;2.60;;;2.40;;
19589;SDS011;12231;42.782;23.388;2023-03-01T06:01:55;3.47;;;2.47;;
19589;SDS011;12231;42.782;23.388;2023-03-01T06:04:21;3.63;;;2.10;;
19589;SDS011;12231;42.782;23.388;2023-03-01T06:06:46;1.70;;;1.20;;
19589;SDS011;12231;42.782;23.388;2023-03-01T06:09:12;1.00;;;1.00;;
19589;SDS011;12231;42.782;23.388;2023-03-01T06:11:37;8.83;;;3.33;;
19589;SDS011;12231;42.782;23.388;2023-03-01T06:14:03;2.43;;;1.63;;
19589;SDS011;12231;42.782;23.388;2023-03-01T06:16:29;1.20;;;1.10;;
19589;SDS011;12231;42.782;23.388;2023-03-01T06:18:54;3.10;;;1.83;;
19589;SDS011;12231;42.782;23.388;2023-03-01T06:21:19;2.43;;;1.77;;
19589;SDS011;12231;42.782;23.388;2023-03-01T06:23:45;4.43;;;3.00;;
19589;SDS011;12231;42.782;23.388;2023-03-01T06:26:10;3.10;;;2.80;;
19589;SDS011;12231;42.782;23.388;2023-03-01T06:28:36;4.37;;;3.17;;
19589;SDS011;12231;42.782;23.388;2023-03-01T06:31:01;4.87;;;3.30;;
19589;SDS011;12231;42.782;23.388;2023-03-01T06:33:27;3.00;;;2.70;;
19589;SDS011;12231;42.782;23.388;2023-03-01T06:35:55;1.57;;;1.43;;
19589;SDS011;12231;42.782;23.388;2023-03-01T06:38:21;1.30;;;1.10;;
19589;SDS011;12231;42.782;23.388;2023-03-01T06:40:52;3.00;;;2.17;;
19589;SDS011;12231;42.782;23.388;2023-03-01T06:43:19;4.20;;;2.47;;
19589;SDS011;12231;42.782;23.388;2023-03-01T06:45:44;1.63;;;1.10;;
19589;SDS011;12231;42.782;23.388;2023-03-01T06:48:10;2.97;;;0.87;;
19589;SDS011;12231;42.782;23.388;2023-03-01T06:50:35;2.93;;;1.30;;
19589;SDS011;12231;42.782;23.388;2023-03-01T06:53:02;2.77;;;1.30;;
19589;SDS011;12231;42.782;23.388;2023-03-01T06:55:28;1.23;;;1.13;;
19589;SDS011;12231;42.782;23.388;2023-03-01T06:57:55;1.10;;;1.00;;
19589;SDS011;12231;42.782;23.388;2023-03-01T07:00:21;0.80;;;0.80;;
19589;SDS011;12231;42.782;23.388;2023-03-01T07:02:47;0.90;;;0.90;;
19589;SDS011;12231;42.782;23.388;2023-03-01T07:05:12;3.63;;;1.40;;
19589;SDS011;12231;42.782;23.388;2023-03-01T07:07:37;3.03;;;1.37;;
19589;SDS011;12231;42.782;23.388;2023-03-01T07:10:03;1.63;;;1.23;;
19589;SDS011;12231;42.782;23.388;2023-03-01T07:12:29;5.70;;;2.13;;
19589;SDS011;12231;42.782;23.388;2023-03-01T07:14:54;2.53;;;2.27;;
19589;SDS011;12231;42.782;23.388;2023-03-01T07:17:19;5.10;;;3.10;;
19589;SDS011;12231;42.782;23.388;2023-03-01T07:19:45;7.63;;;3.00;;
19589;SDS011;12231;42.782;23.388;2023-03-01T07:22:10;8.07;;;3.60;;
19589;SDS011;12231;42.782;23.388;2023-03-01T07:24:35;5.43;;;4.10;;
19589;SDS011;12231;42.782;23.388;2023-03-01T07:27:01;9.43;;;4.20;;
19589;SDS011;12231;42.782;23.388;2023-03-01T07:29:26;4.63;;;2.87;;
19589;SDS011;12231;42.782;23.388;2023-03-01T07:31:53;9.77;;;5.57;;
19589;SDS011;12231;42.782;23.388;2023-03-01T07:34:19;17.10;;;6.77;;
19589;SDS011;12231;42.782;23.388;2023-03-01T07:36:44;9.70;;;4.60;;
19589;SDS011;12231;42.782;23.388;2023-03-01T07:39:10;6.40;;;4.87;;
19589;SDS011;12231;42.782;23.388;2023-03-01T07:41:36;4.10;;;2.83;;
19589;SDS011;12231;42.782;23.388;2023-03-01T07:44:01;3.50;;;2.43;;
19589;SDS011;12231;42.782;23.388;2023-03-01T07:46:27;8.67;;;4.70;;
19589;SDS011;12231;42.782;23.388;2023-03-01T07:48:52;7.40;;;3.43;;
19589;SDS011;12231;42.782;23.388;2023-03-01T07:51:18;4.43;;;2.80;;
19589;SDS011;12231;42.782;23.388;2023-03-01T07:53:45;15.93;;;8.17;;
19589;SDS011;12231;42.782;23.388;2023-03-01T07:56:12;7.93;;;5.10;;
19589;SDS011;12231;42.782;23.388;2023-03-01T07:58:42;5.13;;;3.07;;
19589;SDS011;12231;42.782;23.388;2023-03-01T08:01:10;4.03;;;2.73;;
19589;SDS011;12231;42.782;23.388;2023-03-01T08:03:37;4.90;;;3.43;;
19589;SDS011;12231;42.782;23.388;2023-03-01T08:06:04;13.43;;;5.83;;
19589;SDS011;12231;42.782;23.388;2023-03-01T08:08:31;14.03;;;6.30;;
19589;SDS011;12231;42.782;23.388;2023-03-01T08:10:57;8.23;;;4.37;;
19589;SDS011;12231;42.782;23.388;2023-03-01T08:13:23;2.80;;;2.53;;
19589;SDS011;12231;42.782;23.388;2023-03-01T08:15:49;5.43;;;2.93;;
19589;SDS011;12231;42.782;23.388;2023-03-01T08:18:18;2.40;;;2.20;;
19589;SDS011;12231;42.782;23.388;2023-03-01T08:20:45;5.10;;;3.00;;
19589;SDS011;12231;42.782;23.388;2023-03-01T08:23:10;4.37;;;2.00;;
19589;SDS011;12231;42.782;23.388;2023-03-01T08:25:36;1.50;;;1.40;;
19589;SDS011;12231;42.782;23.388;2023-03-01T08:28:02;2.20;;;1.73;;
19589;SDS011;12231;42.782;23.388;2023-03-01T08:30:28;7.03;;;3.63;;
19589;SDS011;12231;42.782;23.388;2023-03-01T08:32:54;11.03;;;4.40;;
19589;SDS011;12231;42.782;23.388;2023-03-01T08:35:19;5.73;;;3.03;;
19589;SDS011;12231;42.782;23.388;2023-03-01T08:37:45;7.77;;;3.90;;
19589;SDS011;12231;42.782;23.388;2023-03-01T08:40:11;3.73;;;2.27;;
19589;SDS011;12231;42.782;23.388;2023-03-01T08:42:38;3.80;;;2.80;;
19589;SDS011;12231;42.782;23.388;2023-03-01T08:45:04;4.60;;;2.43;;
19589;SDS011;12231;42.782;23.388;2023-03-01T08:47:30;4.63;;;1.90;;
19589;SDS011;12231;42.782;23.388;2023-03-01T08:49:55;5.67;;;3.73;;
19589;SDS011;12231;42.782;23.388;2023-03-01T08:52:20;7.87;;;4.33;;
19589;SDS011;12231;42.782;23.388;2023-03-01T08:54:49;2.00;;;1.77;;
19589;SDS011;12231;42.782;23.388;2023-03-01T08:57:14;1.97;;;1.87;;
19589;SDS011;12231;42.782;23.388;2023-03-01T08:59:40;2.83;;;2.23;;
19589;SDS011;12231;42.782;23.388;2023-03-01T09:02:08;3.90;;;2.03;;
19589;SDS011;12231;42.782;23.388;2023-03-01T09:04:37;2.33;;;2.07;;
19589;SDS011;12231;42.782;23.388;2023-03-01T09:07:02;3.27;;;2.00;;
19589;SDS011;12231;42.782;23.388;2023-03-01T09:09:28;2.00;;;1.73;;
19589;SDS011;12231;42.782;23.388;2023-03-01T09:11:53;2.13;;;1.93;;
19589;SDS011;12231;42.782;23.388;2023-03-01T09:14:19;2.27;;;1.87;;
19589;SDS011;12231;42.782;23.388;2023-03-01T09:16:44;2.63;;;1.93;;
19589;SDS011;12231;42.782;23.388;2023-03-01T09:19:10;3.87;;;3.53;;
19589;SDS011;12231;42.782;23.388;2023-03-01T09:21:37;3.77;;;2.73;;
19589;SDS011;12231;42.782;23.388;2023-03-01T09:24:02;3.80;;;3.30;;
19589;SDS011;12231;42.782;23.388;2023-03-01T09:26:28;3.70;;;2.67;;
19589;SDS011;12231;42.782;23.388;2023-03-01T09:28:54;4.07;;;3.43;;
19589;SDS011;12231;42.782;23.388;2023-03-01T09:31:21;3.93;;;3.23;;
19589;SDS011;12231;42.782;23.388;2023-03-01T09:33:48;2.40;;;2.20;;
19589;SDS011;12231;42.782;23.388;2023-03-01T09:36:17;3.23;;;2.30;;
19589;SDS011;12231;42.782;23.388;2023-03-01T09:38:44;11.97;;;5.47;;
19589;SDS011;12231;42.782;23.388;2023-03-01T09:41:11;3.45;;;2.50;;
19589;SDS011;12231;42.782;23.388;2023-03-01T09:46:47;2.27;;;2.07;;
19589;SDS011;12231;42.782;23.388;2023-03-01T09:49:23;2.30;;;2.10;;
19589;SDS011;12231;42.782;23.388;2023-03-01T09:54:36;8.30;;;6.43;;
19589;SDS011;12231;42.782;23.388;2023-03-01T10:02:39;2.50;;;1.67;;
19589;SDS011;12231;42.782;23.388;2023-03-01T10:07:58;1.50;;;1.40;;
19589;SDS011;12231;42.782;23.388;2023-03-01T10:10:34;3.20;;;2.20;;
19589;SDS011;12231;42.782;23.388;2023-03-01T10:13:04;3.00;;;1.83;;
19589;SDS011;12231;42.782;23.388;2023-03-01T10:15:44;2.67;;;2.17;;
19589;SDS011;12231;42.782;23.388;2023-03-01T10:18:17;2.00;;;1.60;;
19589;SDS011;12231;42.782;23.388;2023-03-01T10:21:05;2.10;;;1.90;;
19589;SDS011;12231;42.782;23.388;2023-03-01T10:23:38;2.20;;;2.00;;
19589;SDS011;12231;42.782;23.388;2023-03-01T10:31:03;2.27;;;2.03;;
19589;SDS011;12231;42.782;23.388;2023-03-01T10:33:30;3.03;;;2.30;;
19589;SDS011;12231;42.782;23.388;2023-03-01T10:36:00;1.63;;;1.50;;
19589;SDS011;12231;42.782;23.388;2023-03-01T10:38:26;5.87;;;3.27;;
19589;SDS011;12231;42.782;23.388;2023-03-01T10:40:57;2.20;;;2.00;;
19589;SDS011;12231;42.782;23.388;2023-03-01T10:43:40;2.10;;;1.53;;
19589;SDS011;12231;42.782;23.388;2023-03-01T10:51:39;4.33;;;3.87;;
19589;SDS011;12231;42.782;23.388;2023-03-01T10:54:06;1.90;;;1.70;;
19589;SDS011;12231;42.782;23.388;2023-03-01T10:57:01;1.67;;;1.20;;
19589;SDS011;12231;42.782;23.388;2023-03-01T10:59:30;3.67;;;1.97;;
19589;SDS011;12231;42.782;23.388;2023-03-01T11:04:34;2.43;;;1.40;;
19589;SDS011;12231;42.782;23.388;2023-03-01T11:07:00;1.67;;;1.23;;
19589;SDS011;12231;42.782;23.388;2023-03-01T11:09:29;4.57;;;1.80;;
19589;SDS011;12231;42.782;23.388;2023-03-01T11:12:02;1.90;;;1.70;;
19589;SDS011;12231;42.782;23.388;2023-03-01T11:14:33;1.70;;;1.60;;
19589;SDS011;12231;42.782;23.388;2023-03-01T11:17:11;2.00;;;1.80;;
19589;SDS011;12231;42.782;23.388;2023-03-01T11:19:42;4.90;;;1.87;;
19589;SDS011;12231;42.782;23.388;2023-03-01T11:24:46;1.27;;;1.17;;
19589;SDS011;12231;42.782;23.388;2023-03-01T11:29:57;0.80;;;0.80;;
19589;SDS011;12231;42.782;23.388;2023-03-01T11:32:50;0.80;;;0.80;;
19589;SDS011;12231;42.782;23.388;2023-03-01T11:35:26;1.93;;;1.10;;
19589;SDS011;12231;42.782;23.388;2023-03-01T11:40:43;0.80;;;0.80;;
19589;SDS011;12231;42.782;23.388;2023-03-01T11:43:15;1.53;;;1.43;;
19589;SDS011;12231;42.782;23.388;2023-03-01T11:51:05;3.60;;;2.00;;
19589;SDS011;12231;42.782;23.388;2023-03-01T11:56:12;1.00;;;0.90;;
19589;SDS011;12231;42.782;23.388;2023-03-01T12:06:57;3.73;;;2.07;;
19589;SDS011;12231;42.782;23.388;2023-03-01T12:17:34;5.07;;;2.97;;
19589;SDS011;12231;42.782;23.388;2023-03-01T12:20:09;8.27;;;3.70;;
19589;SDS011;12231;42.782;23.388;2023-03-01T12:22:55;1.90;;;1.70;;
19589;SDS011;12231;42.782;23.388;2023-03-01T12:25:53;1.93;;;1.40;;
19589;SDS011;12231;42.782;23.388;2023-03-01T12:31:11;5.07;;;1.97;;
19589;SDS011;12231;42.782;23.388;2023-03-01T12:42:23;2.10;;;1.90;;
19589;SDS011;12231;42.782;23.388;2023-03-01T12:50:14;8.03;;;4.40;;
19589;SDS011;12231;42.782;23.388;2023-03-01T12:52:49;7.40;;;2.80;;
19589;SDS011;12231;42.782;23.388;2023-03-01T13:00:28;4.00;;;2.50;;
19589;SDS011;12231;42.782;23.388;2023-03-01T13:03:06;3.27;;;2.60;;
19589;SDS011;12231;42.782;23.388;2023-03-01T13:08:05;8.20;;;4.90;;
19589;SDS011;12231;42.782;23.388;2023-03-01T13:10:48;5.63;;;3.63;;
19589;SDS011;12231;42.782;23.388;2023-03-01T13:15:45;3.07;;;2.17;;
19589;SDS011;12231;42.782;23.388;2023-03-01T13:23:11;2.73;;;2.27;;
19589;SDS011;12231;42.782;23.388;2023-03-01T13:31:54;22.00;;;9.40;;
19589;SDS011;12231;42.782;23.388;2023-03-01T13:33:57;18.07;;;8.57;;
19589;SDS011;12231;42.782;23.388;2023-03-01T13:38:57;7.33;;;4.10;;
19589;SDS011;12231;42.782;23.388;2023-03-01T13:44:29;6.80;;;4.17;;
19589;SDS011;12231;42.782;23.388;2023-03-01T13:49:33;7.57;;;2.83;;
19589;SDS011;12231;42.782;23.388;2023-03-01T13:52:13;4.50;;;2.90;;
19589;SDS011;12231;42.782;23.388;2023-03-01T13:55:05;3.53;;;2.50;;
19589;SDS011;12231;42.782;23.388;2023-03-01T13:57:42;4.23;;;2.57;;
19589;SDS011;12231;42.782;23.388;2023-03-01T14:03:15;6.17;;;4.40;;
19589;SDS011;12231;42.782;23.388;2023-03-01T14:08:28;7.57;;;4.03;;
19589;SDS011;12231;42.782;23.388;2023-03-01T14:19:33;11.17;;;4.73;;
19589;SDS011;12231;42.782;23.388;2023-03-01T14:24:50;3.50;;;2.27;;
19589;SDS011;12231;42.782;23.388;2023-03-01T14:27:19;8.67;;;5.50;;
19589;SDS011;12231;42.782;23.388;2023-03-01T14:29:54;9.13;;;6.67;;
19589;SDS011;12231;42.782;23.388;2023-03-01T14:32:25;8.87;;;5.87;;
19589;SDS011;12231;42.782;23.388;2023-03-01T14:34:52;5.73;;;2.60;;
19589;SDS011;12231;42.782;23.388;2023-03-01T14:37:24;3.60;;;2.80;;
19589;SDS011;12231;42.782;23.388;2023-03-01T14:39:52;4.00;;;2.40;;
19589;SDS011;12231;42.782;23.388;2023-03-01T14:42:18;2.70;;;2.27;;
19589;SDS011;12231;42.782;23.388;2023-03-01T14:44:47;5.80;;;3.87;;
19589;SDS011;12231;42.782;23.388;2023-03-01T14:47:16;9.97;;;6.20;;
19589;SDS011;12231;42.782;23.388;2023-03-01T14:49:51;17.20;;;9.80;;
19589;SDS011;12231;42.782;23.388;2023-03-01T14:52:31;14.43;;;6.83;;
19589;SDS011;12231;42.782;23.388;2023-03-01T14:55:19;9.23;;;6.27;;
19589;SDS011;12231;42.782;23.388;2023-03-01T14:57:54;10.70;;;7.13;;
19589;SDS011;12231;42.782;23.388;2023-03-01T15:00:29;5.93;;;3.90;;
19589;SDS011;12231;42.782;23.388;2023-03-01T15:02:56;5.30;;;4.07;;
19589;SDS011;12231;42.782;23.388;2023-03-01T15:05:34;3.33;;;2.50;;
19589;SDS011;12231;42.782;23.388;2023-03-01T15:08:01;2.50;;;2.30;;
19589;SDS011;12231;42.782;23.388;2023-03-01T15:10:29;7.10;;;4.10;;
19589;SDS011;12231;42.782;23.388;2023-03-01T15:13:09;7.03;;;4.30;;
19589;SDS011;12231;42.782;23.388;2023-03-01T15:15:40;10.40;;;6.80;;
19589;SDS011;12231;42.782;23.388;2023-03-01T15:18:18;7.17;;;4.53;;
19589;SDS011;12231;42.782;23.388;2023-03-01T15:20:46;7.13;;;4.57;;
19589;SDS011;12231;42.782;23.388;2023-03-01T15:23:18;4.27;;;3.57;;
19589;SDS011;12231;42.782;23.388;2023-03-01T15:25:49;9.13;;;5.57;;
19589;SDS011;12231;42.782;23.388;2023-03-01T15:28:22;5.77;;;3.23;;
19589;SDS011;12231;42.782;23.388;2023-03-01T15:39:22;11.77;;;6.57;;
19589;SDS011;12231;42.782;23.388;2023-03-01T15:41:55;14.50;;;7.57;;
19589;SDS011;12231;42.782;23.388;2023-03-01T15:44:28;10.10;;;5.40;;
19589;SDS011;12231;42.782;23.388;2023-03-01T15:46:55;13.00;;;5.70;;
19589;SDS011;12231;42.782;23.388;2023-03-01T15:49:41;19.13;;;11.23;;
19589;SDS011;12231;42.782;23.388;2023-03-01T15:54:55;5.53;;;3.13;;
19589;SDS011;12231;42.782;23.388;2023-03-01T15:57:25;7.20;;;5.27;;
19589;SDS011;12231;42.782;23.388;2023-03-01T15:59:51;7.37;;;4.00;;
19589;SDS011;12231;42.782;23.388;2023-03-01T16:02:16;12.43;;;6.27;;
19589;SDS011;12231;42.782;23.388;2023-03-01T16:04:42;8.97;;;4.80;;
19589;SDS011;12231;42.782;23.388;2023-03-01T16:07:08;15.73;;;7.87;;
19589;SDS011;12231;42.782;23.388;2023-03-01T16:09:34;16.27;;;6.57;;
19589;SDS011;12231;42.782;23.388;2023-03-01T16:12:00;9.97;;;5.37;;
19589;SDS011;12231;42.782;23.388;2023-03-01T16:14:26;14.13;;;7.03;;
19589;SDS011;12231;42.782;23.388;2023-03-01T16:16:52;15.33;;;8.47;;
19589;SDS011;12231;42.782;23.388;2023-03-01T16:19:17;11.57;;;4.73;;
19589;SDS011;12231;42.782;23.388;2023-03-01T16:21:43;14.27;;;7.13;;
19589;SDS011;12231;42.782;23.388;2023-03-01T16:24:11;7.63;;;3.93;;
19589;SDS011;12231;42.782;23.388;2023-03-01T16:26:37;16.60;;;8.37;;
19589;SDS011;12231;42.782;23.388;2023-03-01T16:29:03;11.53;;;4.83;;
19589;SDS011;12231;42.782;23.388;2023-03-01T16:31:29;31.67;;;16.77;;
19589;SDS011;12231;42.782;23.388;2023-03-01T16:33:55;44.07;;;20.40;;
19589;SDS011;12231;42.782;23.388;2023-03-01T16:36:21;42.60;;;17.87;;
19589;SDS011;12231;42.782;23.388;2023-03-01T16:38:49;22.30;;;9.40;;
19589;SDS011;12231;42.782;23.388;2023-03-01T16:41:16;27.00;;;12.67;;
19589;SDS011;12231;42.782;23.388;2023-03-01T16:43:43;37.00;;;15.53;;
19589;SDS011;12231;42.782;23.388;2023-03-01T16:46:11;30.03;;;11.93;;
19589;SDS011;12231;42.782;23.388;2023-03-01T16:48:42;23.73;;;11.30;;
19589;SDS011;12231;42.782;23.388;2023-03-01T16:51:07;12.30;;;6.93;;
19589;SDS011;12231;42.782;23.388;2023-03-01T16:53:34;10.23;;;6.47;;
19589;SDS011;12231;42.782;23.388;2023-03-01T16:56:01;10.07;;;6.37;;
19589;SDS011;12231;42.782;23.388;2023-03-01T16:58:28;8.57;;;6.33;;
19589;SDS011;12231;42.782;23.388;2023-03-01T17:00:54;11.07;;;8.10;;
19589;SDS011;12231;42.782;23.388;2023-03-01T17:03:21;6.30;;;4.73;;
19589;SDS011;12231;42.782;23.388;2023-03-01T17:05:47;7.53;;;5.37;;
19589;SDS011;12231;42.782;23.388;2023-03-01T17:08:13;11.97;;;7.13;;
19589;SDS011;12231;42.782;23.388;2023-03-01T17:10:39;7.40;;;5.43;;
19589;SDS011;12231;42.782;23.388;2023-03-01T17:13:07;9.40;;;6.33;;